createdAt,value
2017-10-30T00:00:18.029Z,0
2017-10-30T00:01:28.732Z,0
2017-10-30T00:02:39.268Z,0
2017-10-30T00:03:49.734Z,0
2017-10-30T00:05:00.214Z,0
2017-10-30T00:06:10.689Z,0
2017-10-30T00:07:21.160Z,0
2017-10-30T00:08:31.597Z,0
2017-10-30T00:09:42.098Z,0
2017-10-30T00:10:52.583Z,0
2017-10-30T00:12:03.183Z,0
2017-10-30T00:13:13.659Z,0
2017-10-30T00:14:23.681Z,0
2017-10-30T00:15:34.158Z,0
2017-10-30T00:16:44.599Z,0
2017-10-30T00:17:55.090Z,0
2017-10-30T00:19:05.775Z,0
2017-10-30T00:20:16.250Z,0
2017-10-30T00:21:26.748Z,0
2017-10-30T00:22:37.263Z,0
2017-10-30T00:23:47.713Z,0
2017-10-30T00:24:58.250Z,0
2017-10-30T00:26:08.716Z,0
2017-10-30T00:27:19.190Z,0
2017-10-30T00:28:29.633Z,0
2017-10-30T00:29:40.239Z,0
2017-10-30T00:30:50.726Z,0
2017-10-30T00:32:01.182Z,0
2017-10-30T00:33:11.856Z,0
2017-10-30T00:34:22.309Z,0
2017-10-30T00:35:32.828Z,0
2017-10-30T00:36:43.419Z,0
2017-10-30T00:37:53.901Z,0
2017-10-30T00:39:04.476Z,0
2017-10-30T00:40:15.151Z,0
2017-10-30T00:41:25.607Z,0
2017-10-30T00:42:36.083Z,0
2017-10-30T00:43:46.518Z,0
2017-10-30T00:44:57.050Z,0
2017-10-30T00:46:07.517Z,0
2017-10-30T00:47:17.967Z,0
2017-10-30T00:48:28.419Z,0
2017-10-30T00:49:39.008Z,0
2017-10-30T00:50:49.548Z,0
2017-10-30T00:51:59.991Z,0
2017-10-30T00:53:10.447Z,0
2017-10-30T00:54:20.915Z,0
2017-10-30T00:55:31.385Z,0
2017-10-30T00:56:41.851Z,0
2017-10-30T00:57:52.374Z,0
2017-10-30T00:59:02.833Z,0
2017-10-30T01:00:12.973Z,0
2017-10-30T01:01:23.485Z,0
2017-10-30T01:02:33.932Z,0
2017-10-30T01:03:44.494Z,0
2017-10-30T01:04:54.960Z,0
2017-10-30T01:06:05.422Z,0
2017-10-30T01:07:15.875Z,0
2017-10-30T01:08:26.496Z,0
2017-10-30T01:09:37.042Z,0
2017-10-30T01:10:47.460Z,0
2017-10-30T01:11:57.909Z,0
2017-10-30T01:13:08.399Z,0
2017-10-30T01:14:19.061Z,0
2017-10-30T01:15:29.217Z,0
2017-10-30T01:16:39.336Z,0
2017-10-30T01:17:49.792Z,0
2017-10-30T01:19:00.284Z,0
2017-10-30T01:20:10.967Z,0
2017-10-30T01:21:21.446Z,0
2017-10-30T01:22:31.879Z,0
2017-10-30T01:23:42.309Z,0
2017-10-30T01:24:52.808Z,0
2017-10-30T01:26:03.267Z,0
2017-10-30T01:27:13.301Z,0
2017-10-30T01:28:23.772Z,0
2017-10-30T01:29:33.947Z,0
2017-10-30T01:30:44.451Z,0
2017-10-30T01:31:54.915Z,0
2017-10-30T01:33:05.383Z,0
2017-10-30T01:34:15.842Z,0
2017-10-30T01:35:26.383Z,0
2017-10-30T01:36:36.846Z,0
2017-10-30T01:37:47.331Z,0
2017-10-30T01:38:57.893Z,0
2017-10-30T01:40:08.363Z,0
2017-10-30T01:41:18.855Z,0
2017-10-30T01:42:29.296Z,0
2017-10-30T01:43:39.739Z,0
2017-10-30T01:44:50.175Z,0
2017-10-30T01:46:00.789Z,0
2017-10-30T01:47:11.310Z,0
2017-10-30T01:48:21.455Z,0
2017-10-30T01:49:31.961Z,0
2017-10-30T01:50:42.084Z,0
2017-10-30T01:51:52.510Z,0
2017-10-30T01:53:03.308Z,0
2017-10-30T01:54:13.907Z,0
2017-10-30T01:55:24.430Z,0
2017-10-30T01:56:34.878Z,0
2017-10-30T01:57:45.417Z,0
2017-10-30T01:58:55.877Z,0
2017-10-30T02:00:06.333Z,0
2017-10-30T02:01:16.760Z,0
2017-10-30T02:02:27.232Z,0
2017-10-30T02:03:37.359Z,0
2017-10-30T02:04:48.149Z,0
2017-10-30T02:05:58.600Z,0
2017-10-30T02:07:09.057Z,0
2017-10-30T02:08:19.728Z,0
2017-10-30T02:09:30.210Z,0
2017-10-30T02:10:41.021Z,0
2017-10-30T02:11:51.520Z,0
2017-10-30T02:13:02.043Z,0
2017-10-30T02:14:12.550Z,0
2017-10-30T02:15:23.216Z,0
2017-10-30T02:16:33.753Z,0
2017-10-30T02:17:43.927Z,0
2017-10-30T02:18:54.401Z,0
2017-10-30T02:20:04.860Z,0
2017-10-30T02:21:15.365Z,0
2017-10-30T02:22:25.865Z,0
2017-10-30T02:23:36.311Z,0
2017-10-30T02:24:46.797Z,0
2017-10-30T02:25:57.256Z,0
2017-10-30T02:27:07.718Z,0
2017-10-30T02:28:18.135Z,0
2017-10-30T02:29:28.613Z,0
2017-10-30T02:30:39.052Z,0
2017-10-30T02:31:49.176Z,0
2017-10-30T02:32:59.631Z,0
2017-10-30T02:34:10.131Z,0
2017-10-30T02:35:20.602Z,0
2017-10-30T02:36:30.751Z,0
2017-10-30T02:37:41.253Z,0
2017-10-30T02:38:51.703Z,0
2017-10-30T02:40:02.230Z,0
2017-10-30T02:41:12.690Z,0
2017-10-30T02:42:23.170Z,0
2017-10-30T02:43:33.600Z,0
2017-10-30T02:44:44.063Z,0
2017-10-30T02:45:54.518Z,0
2017-10-30T02:47:04.751Z,0
2017-10-30T02:48:15.267Z,0
2017-10-30T02:49:25.864Z,0
2017-10-30T02:50:36.032Z,0
2017-10-30T02:51:46.481Z,0
2017-10-30T02:52:56.630Z,0
2017-10-30T02:54:06.762Z,0
2017-10-30T02:55:17.227Z,0
2017-10-30T02:56:27.682Z,0
2017-10-30T02:57:38.109Z,0
2017-10-30T02:58:48.675Z,0
2017-10-30T02:59:59.125Z,0
2017-10-30T03:01:09.617Z,0
2017-10-30T03:02:20.085Z,0
2017-10-30T03:03:30.528Z,0
2017-10-30T03:04:40.994Z,0
2017-10-30T03:05:51.459Z,0
2017-10-30T03:07:01.914Z,0
2017-10-30T03:08:12.575Z,0
2017-10-30T03:09:23.121Z,0
2017-10-30T03:10:33.735Z,0
2017-10-30T03:11:45.175Z,0
2017-10-30T03:12:55.612Z,0
2017-10-30T03:14:06.042Z,0
2017-10-30T03:15:16.604Z,0
2017-10-30T03:16:27.071Z,0
2017-10-30T03:17:37.228Z,0
2017-10-30T03:18:47.708Z,0
2017-10-30T03:19:58.131Z,0
2017-10-30T03:21:08.604Z,0
2017-10-30T03:22:19.068Z,0
2017-10-30T03:23:29.278Z,0
2017-10-30T03:24:39.753Z,0
2017-10-30T03:25:49.849Z,0
2017-10-30T03:27:00.355Z,0
2017-10-30T03:28:10.810Z,0
2017-10-30T03:29:21.552Z,0
2017-10-30T03:30:32.009Z,0
2017-10-30T03:31:43.090Z,0
2017-10-30T03:32:53.201Z,0
2017-10-30T03:34:03.675Z,0
2017-10-30T03:35:14.202Z,0
2017-10-30T03:36:24.658Z,0
2017-10-30T03:37:34.952Z,0
2017-10-30T03:38:45.432Z,0
2017-10-30T03:39:55.895Z,0
2017-10-30T03:41:06.368Z,0
2017-10-30T03:42:16.808Z,0
2017-10-30T03:43:26.929Z,0
2017-10-30T03:44:37.409Z,0
2017-10-30T03:45:47.887Z,0
2017-10-30T03:46:58.439Z,0
2017-10-30T03:48:08.934Z,0
2017-10-30T03:49:19.446Z,0
2017-10-30T03:50:29.563Z,0
2017-10-30T03:51:39.249Z,0
2017-10-30T03:52:49.816Z,0
2017-10-30T03:53:59.963Z,0
2017-10-30T03:55:10.430Z,0
2017-10-30T03:56:21.084Z,0
2017-10-30T03:57:31.144Z,0
2017-10-30T03:58:41.619Z,0
2017-10-30T03:59:52.287Z,0
2017-10-30T04:01:02.962Z,0
2017-10-30T04:02:13.433Z,0
2017-10-30T04:03:24.136Z,0
2017-10-30T04:04:34.917Z,0
2017-10-30T04:05:45.361Z,0
2017-10-30T04:06:55.797Z,0
2017-10-30T04:08:06.280Z,0
2017-10-30T04:09:16.742Z,0
2017-10-30T04:10:26.839Z,0
2017-10-30T04:11:37.269Z,0
2017-10-30T04:12:47.698Z,0
2017-10-30T04:13:58.169Z,0
2017-10-30T04:15:08.673Z,0
2017-10-30T04:16:19.090Z,0
2017-10-30T04:17:29.654Z,0
2017-10-30T04:18:40.114Z,0
2017-10-30T04:19:50.606Z,0
2017-10-30T04:21:00.719Z,0
2017-10-30T04:22:10.856Z,0
2017-10-30T04:23:21.337Z,0
2017-10-30T04:24:31.805Z,0
2017-10-30T04:25:42.272Z,0
2017-10-30T04:26:52.989Z,0
2017-10-30T04:28:03.446Z,0
2017-10-30T04:29:13.905Z,0
2017-10-30T04:30:24.439Z,0
2017-10-30T04:31:34.884Z,0
2017-10-30T04:32:45.383Z,0
2017-10-30T04:33:55.835Z,0
2017-10-30T04:35:06.343Z,0
2017-10-30T04:36:16.798Z,0
2017-10-30T04:37:27.415Z,0
2017-10-30T04:38:37.949Z,0
2017-10-30T04:39:48.437Z,0
2017-10-30T04:40:58.912Z,0
2017-10-30T04:42:09.397Z,0
2017-10-30T04:43:19.911Z,0
2017-10-30T04:44:30.351Z,0
2017-10-30T04:45:40.801Z,0
2017-10-30T04:46:51.462Z,0
2017-10-30T04:48:01.622Z,0
2017-10-30T04:49:12.199Z,0
2017-10-30T04:50:22.650Z,0
2017-10-30T04:51:33.091Z,0
2017-10-30T04:52:43.559Z,0
2017-10-30T04:53:54.001Z,0
2017-10-30T04:55:04.531Z,0
2017-10-30T04:56:14.982Z,0
2017-10-30T04:57:25.433Z,0
2017-10-30T04:58:35.929Z,0
2017-10-30T04:59:46.388Z,0
2017-10-30T05:00:56.831Z,0
2017-10-30T05:02:07.267Z,0
2017-10-30T05:03:17.749Z,0
2017-10-30T05:04:28.200Z,0
2017-10-30T05:05:38.652Z,0
2017-10-30T05:06:49.279Z,0
2017-10-30T05:07:59.738Z,0
2017-10-30T05:09:10.174Z,0
2017-10-30T05:10:20.313Z,0
2017-10-30T05:11:30.777Z,0
2017-10-30T05:12:41.255Z,0
2017-10-30T05:13:51.725Z,0
2017-10-30T05:15:02.214Z,0
2017-10-30T05:16:12.677Z,0
2017-10-30T05:17:23.179Z,0
2017-10-30T05:18:33.673Z,0
2017-10-30T05:19:44.149Z,0
2017-10-30T05:20:54.601Z,0
2017-10-30T05:22:05.043Z,0
2017-10-30T05:23:15.529Z,0
2017-10-30T05:24:25.854Z,0
2017-10-30T05:25:36.311Z,0
2017-10-30T05:26:46.454Z,0
2017-10-30T05:27:57.143Z,0
2017-10-30T05:29:07.581Z,0
2017-10-30T05:30:18.038Z,0
2017-10-30T05:31:28.523Z,0
2017-10-30T05:32:38.992Z,0
2017-10-30T05:33:49.409Z,0
2017-10-30T05:34:59.851Z,0
2017-10-30T05:36:10.289Z,0
2017-10-30T05:37:20.760Z,0
2017-10-30T05:38:31.258Z,0
2017-10-30T05:39:41.777Z,0
2017-10-30T05:40:51.813Z,0
2017-10-30T05:42:02.308Z,0
2017-10-30T05:43:12.785Z,0
2017-10-30T05:44:23.238Z,0
2017-10-30T05:45:33.369Z,0
2017-10-30T05:46:43.802Z,0
2017-10-30T05:47:54.369Z,0
2017-10-30T05:49:04.827Z,0
2017-10-30T05:50:15.328Z,0
2017-10-30T05:51:25.861Z,0
2017-10-30T05:52:36.325Z,0
2017-10-30T05:53:46.875Z,0
2017-10-30T05:54:57.314Z,0
2017-10-30T05:56:07.821Z,0
2017-10-30T05:57:18.347Z,5
2017-10-30T05:58:28.783Z,5
2017-10-30T05:59:39.215Z,5
2017-10-30T06:00:49.384Z,5
2017-10-30T06:01:59.946Z,5
2017-10-30T06:03:10.459Z,5
2017-10-30T06:04:20.912Z,5
2017-10-30T06:05:31.363Z,10
2017-10-30T06:06:41.842Z,10
2017-10-30T06:07:52.326Z,10
2017-10-30T06:09:02.871Z,10
2017-10-30T06:10:13.798Z,15
2017-10-30T06:11:24.251Z,15
2017-10-30T06:12:34.763Z,15
2017-10-30T06:13:45.199Z,15
2017-10-30T06:14:55.700Z,15
2017-10-30T06:16:06.159Z,20
2017-10-30T06:17:16.646Z,20
2017-10-30T06:18:27.110Z,20
2017-10-30T06:19:37.625Z,25
2017-10-30T06:20:48.087Z,25
2017-10-30T06:21:58.547Z,25
2017-10-30T06:23:09.071Z,25
2017-10-30T06:24:19.522Z,30
2017-10-30T06:25:30.018Z,30
2017-10-30T06:26:40.498Z,30
2017-10-30T06:27:50.967Z,35
2017-10-30T06:29:01.445Z,35
2017-10-30T06:30:11.929Z,40
2017-10-30T06:31:22.420Z,40
2017-10-30T06:32:32.983Z,50
2017-10-30T06:33:43.453Z,55
2017-10-30T06:34:53.905Z,55
2017-10-30T06:36:03.960Z,60
2017-10-30T06:37:14.414Z,60
2017-10-30T06:38:24.872Z,65
2017-10-30T06:39:35.339Z,70
2017-10-30T06:40:46.042Z,75
2017-10-30T06:41:56.596Z,85
2017-10-30T06:43:07.025Z,95
2017-10-30T06:44:17.511Z,100
2017-10-30T06:45:27.997Z,135
2017-10-30T06:46:38.465Z,165
2017-10-30T06:47:48.912Z,175
2017-10-30T06:48:59.420Z,190
2017-10-30T06:50:09.867Z,210
2017-10-30T06:51:20.015Z,215
2017-10-30T06:52:30.052Z,225
2017-10-30T06:53:40.494Z,235
2017-10-30T06:54:51.081Z,245
2017-10-30T06:56:01.550Z,260
2017-10-30T06:57:12.003Z,270
2017-10-30T06:58:22.114Z,280
2017-10-30T06:59:32.600Z,295
2017-10-30T07:00:43.182Z,305
2017-10-30T07:01:53.659Z,320
2017-10-30T07:03:04.103Z,325
2017-10-30T07:04:14.576Z,335
2017-10-30T07:05:25.034Z,345
2017-10-30T07:06:35.217Z,350
2017-10-30T07:07:45.930Z,365
2017-10-30T07:08:56.410Z,375
2017-10-30T07:10:06.896Z,380
2017-10-30T07:11:17.334Z,390
2017-10-30T07:12:27.844Z,395
2017-10-30T07:13:38.286Z,410
2017-10-30T07:14:48.761Z,425
2017-10-30T07:15:59.205Z,440
2017-10-30T07:17:09.944Z,455
2017-10-30T07:18:20.431Z,465
2017-10-30T07:19:30.930Z,475
2017-10-30T07:20:41.427Z,490
2017-10-30T07:21:52.107Z,500
2017-10-30T07:23:02.711Z,525
2017-10-30T07:24:12.896Z,530
2017-10-30T07:25:23.564Z,545
2017-10-30T07:26:34.040Z,560
2017-10-30T07:27:44.526Z,575
2017-10-30T07:28:54.993Z,590
2017-10-30T07:30:05.499Z,605
2017-10-30T07:31:16.228Z,625
2017-10-30T07:32:26.713Z,630
2017-10-30T07:33:37.215Z,640
2017-10-30T07:34:47.682Z,655
2017-10-30T07:35:58.128Z,665
2017-10-30T07:37:08.282Z,665
2017-10-30T07:38:18.725Z,680
2017-10-30T07:39:29.302Z,685
2017-10-30T07:40:39.837Z,690
2017-10-30T07:41:50.316Z,710
2017-10-30T07:43:00.825Z,755
2017-10-30T07:44:11.297Z,770
2017-10-30T07:45:21.438Z,770
2017-10-30T07:46:31.900Z,770
2017-10-30T07:47:42.378Z,770
2017-10-30T07:48:52.905Z,780
2017-10-30T07:50:03.372Z,795
2017-10-30T07:51:13.894Z,800
2017-10-30T07:52:24.357Z,825
2017-10-30T07:53:35.080Z,850
2017-10-30T07:54:45.574Z,860
2017-10-30T07:55:56.065Z,865
2017-10-30T07:57:06.676Z,865
2017-10-30T07:58:17.174Z,865
2017-10-30T07:59:27.688Z,890
2017-10-30T08:00:38.407Z,915
2017-10-30T08:01:48.887Z,935
2017-10-30T08:02:59.368Z,915
2017-10-30T08:04:09.855Z,930
2017-10-30T08:05:20.598Z,945
2017-10-30T08:06:31.164Z,935
2017-10-30T08:07:41.341Z,960
2017-10-30T08:08:51.821Z,965
2017-10-30T08:10:02.299Z,985
2017-10-30T08:11:12.774Z,1000
2017-10-30T08:12:23.488Z,1010
2017-10-30T08:13:34.040Z,1015
2017-10-30T08:14:44.680Z,1045
2017-10-30T08:15:55.315Z,1065
2017-10-30T08:17:05.807Z,1060
2017-10-30T08:18:16.318Z,1060
2017-10-30T08:19:26.788Z,1050
2017-10-30T08:20:37.251Z,1050
2017-10-30T08:21:47.845Z,1055
2017-10-30T08:22:58.372Z,1075
2017-10-30T08:24:09.001Z,1110
2017-10-30T08:25:19.152Z,1150
2017-10-30T08:26:29.662Z,1150
2017-10-30T08:27:40.165Z,1155
2017-10-30T08:28:50.789Z,1135
2017-10-30T08:30:01.279Z,1130
2017-10-30T08:31:11.754Z,1135
2017-10-30T08:32:22.224Z,1150
2017-10-30T08:33:32.709Z,1145
2017-10-30T08:34:43.175Z,1160
2017-10-30T08:35:53.638Z,1195
2017-10-30T08:37:04.108Z,1245
2017-10-30T08:38:14.587Z,1280
2017-10-30T08:39:25.103Z,1340
2017-10-30T08:40:35.618Z,1375
2017-10-30T08:41:46.088Z,1340
2017-10-30T08:42:56.257Z,1325
2017-10-30T08:44:06.720Z,1325
2017-10-30T08:45:17.222Z,1335
2017-10-30T08:46:27.723Z,1375
2017-10-30T08:47:38.257Z,1365
2017-10-30T08:48:48.744Z,1310
2017-10-30T08:49:59.240Z,1300
2017-10-30T08:51:09.743Z,1345
2017-10-30T08:52:20.684Z,1410
2017-10-30T08:53:31.274Z,1440
2017-10-30T08:54:41.776Z,1420
2017-10-30T08:55:52.496Z,1465
2017-10-30T08:57:03.026Z,1555
2017-10-30T08:58:13.556Z,1630
2017-10-30T08:59:23.743Z,1530
2017-10-30T09:00:34.252Z,1445
2017-10-30T09:01:44.321Z,1455
2017-10-30T09:02:54.803Z,1485
2017-10-30T09:04:05.385Z,1520
2017-10-30T09:05:15.882Z,1535
2017-10-30T09:06:26.355Z,1570
2017-10-30T09:07:36.921Z,1595
2017-10-30T09:08:47.505Z,1595
2017-10-30T09:09:57.972Z,1605
2017-10-30T09:11:08.757Z,1595
2017-10-30T09:12:19.256Z,1625
2017-10-30T09:13:29.711Z,1620
2017-10-30T09:14:40.318Z,1535
2017-10-30T09:15:51.025Z,1460
2017-10-30T09:17:01.540Z,1410
2017-10-30T09:18:12.012Z,1410
2017-10-30T09:19:22.728Z,1465
2017-10-30T09:20:33.251Z,1575
2017-10-30T09:21:43.745Z,1655
2017-10-30T09:22:54.324Z,1620
2017-10-30T09:24:04.926Z,1555
2017-10-30T09:25:15.440Z,1510
2017-10-30T09:26:25.930Z,1495
2017-10-30T09:27:36.438Z,1540
2017-10-30T09:28:47.171Z,1535
2017-10-30T09:29:57.628Z,1545
2017-10-30T09:31:08.230Z,1535
2017-10-30T09:32:50.566Z,1545
2017-10-30T09:34:01.176Z,1550
2017-10-30T09:35:11.673Z,1570
2017-10-30T09:36:22.196Z,1545
2017-10-30T09:37:32.598Z,1525
2017-10-30T09:38:43.129Z,1575
2017-10-30T09:39:53.623Z,1675
2017-10-30T09:41:04.139Z,1715
2017-10-30T09:42:14.757Z,1635
2017-10-30T09:43:25.221Z,1570
2017-10-30T09:44:35.698Z,1575
2017-10-30T09:45:46.172Z,1600
2017-10-30T09:46:56.769Z,1615
2017-10-30T09:48:07.338Z,1625
2017-10-30T09:49:17.809Z,1650
2017-10-30T09:50:28.351Z,1700
2017-10-30T09:51:39.061Z,1745
2017-10-30T09:52:49.550Z,1735
2017-10-30T09:54:00.041Z,1720
2017-10-30T09:55:10.535Z,1725
2017-10-30T09:56:21.052Z,1725
2017-10-30T09:57:31.602Z,1700
2017-10-30T09:58:42.120Z,1725
2017-10-30T09:59:52.669Z,1840
2017-10-30T10:01:03.177Z,1950
2017-10-30T10:02:13.669Z,1990
2017-10-30T10:03:24.424Z,1985
2017-10-30T10:04:34.642Z,1955
2017-10-30T10:05:45.504Z,1960
2017-10-30T10:06:55.833Z,1925
2017-10-30T10:08:06.300Z,1855
2017-10-30T10:09:16.800Z,1830
2017-10-30T10:10:27.340Z,1895
2017-10-30T10:11:37.849Z,1990
2017-10-30T10:12:48.363Z,1940
2017-10-30T10:13:58.891Z,1820
2017-10-30T10:15:09.472Z,1750
2017-10-30T10:16:20.016Z,1790
2017-10-30T10:17:30.536Z,1890
2017-10-30T10:18:41.012Z,1925
2017-10-30T10:19:51.516Z,1875
2017-10-30T10:21:01.993Z,1830
2017-10-30T10:22:12.487Z,1810
2017-10-30T10:23:22.964Z,1795
2017-10-30T10:24:33.502Z,1800
2017-10-30T10:25:43.665Z,1810
2017-10-30T10:26:54.204Z,1840
2017-10-30T10:28:04.662Z,1815
2017-10-30T10:29:15.235Z,1810
2017-10-30T10:30:25.760Z,1875
2017-10-30T10:31:36.280Z,2025
2017-10-30T10:32:46.777Z,2115
2017-10-30T10:33:57.339Z,2075
2017-10-30T10:35:07.824Z,1925
2017-10-30T10:36:18.420Z,1770
2017-10-30T10:37:29.920Z,1680
2017-10-30T10:38:40.448Z,1665
2017-10-30T10:39:50.979Z,1700
2017-10-30T10:41:01.519Z,1725
2017-10-30T10:42:11.998Z,1725
2017-10-30T10:43:22.511Z,1685
2017-10-30T10:44:33.122Z,1665
2017-10-30T10:45:43.609Z,1730
2017-10-30T10:46:54.141Z,1770
2017-10-30T10:48:04.780Z,1765
2017-10-30T10:49:15.290Z,1780
2017-10-30T10:50:25.808Z,1835
2017-10-30T10:51:36.363Z,1980
2017-10-30T10:52:46.837Z,2135
2017-10-30T10:53:58.338Z,2170
2017-10-30T10:55:08.907Z,2035
2017-10-30T10:56:19.387Z,1855
2017-10-30T10:57:29.906Z,1775
2017-10-30T10:58:40.460Z,1735
2017-10-30T10:59:51.070Z,1720
2017-10-30T11:01:01.681Z,1805
2017-10-30T11:02:12.273Z,1945
2017-10-30T11:03:22.756Z,2020
2017-10-30T11:04:32.933Z,2035
2017-10-30T11:05:43.616Z,1940
2017-10-30T11:06:54.235Z,1860
2017-10-30T11:08:04.817Z,1790
2017-10-30T11:09:15.304Z,1755
2017-10-30T11:10:25.914Z,1765
2017-10-30T11:11:36.407Z,1780
2017-10-30T11:12:46.874Z,1805
2017-10-30T11:13:57.461Z,1795
2017-10-30T11:15:07.930Z,1790
2017-10-30T11:16:18.460Z,1830
2017-10-30T11:17:29.077Z,1890
2017-10-30T11:18:39.795Z,2005
2017-10-30T11:19:50.289Z,2035
2017-10-30T11:21:00.861Z,1965
2017-10-30T11:22:11.429Z,1835
2017-10-30T11:23:21.621Z,1750
2017-10-30T11:24:32.106Z,1700
2017-10-30T11:25:42.591Z,1710
2017-10-30T11:26:53.114Z,1755
2017-10-30T11:28:03.287Z,1795
2017-10-30T11:29:13.781Z,1780
2017-10-30T11:30:23.951Z,1795
2017-10-30T11:31:34.456Z,1810
2017-10-30T11:32:45.133Z,1845
2017-10-30T11:33:55.682Z,1850
2017-10-30T11:35:06.415Z,1805
2017-10-30T11:36:16.900Z,1760
2017-10-30T11:37:27.362Z,1780
2017-10-30T11:38:37.888Z,1860
2017-10-30T11:39:48.436Z,1940
2017-10-30T11:40:58.927Z,1950
2017-10-30T11:42:09.417Z,1885
2017-10-30T11:43:19.936Z,1780
2017-10-30T11:44:30.464Z,1685
2017-10-30T11:45:40.925Z,1635
2017-10-30T11:46:51.425Z,1620
2017-10-30T11:48:01.913Z,1605
2017-10-30T11:49:12.468Z,1680
2017-10-30T11:50:23.104Z,1740
2017-10-30T11:51:33.624Z,1750
2017-10-30T11:52:44.111Z,1715
2017-10-30T11:53:54.677Z,1705
2017-10-30T11:55:05.239Z,1705
2017-10-30T11:56:15.730Z,1695
2017-10-30T11:57:26.260Z,1760
2017-10-30T11:58:36.810Z,1850
2017-10-30T11:59:47.420Z,1860
2017-10-30T12:00:58.085Z,1815
2017-10-30T12:02:08.593Z,1795
2017-10-30T12:03:19.084Z,1775
2017-10-30T12:04:29.617Z,1770
2017-10-30T12:05:40.083Z,1765
2017-10-30T12:06:50.650Z,1745
2017-10-30T12:08:01.177Z,1725
2017-10-30T12:09:11.742Z,1700
2017-10-30T12:10:22.373Z,1740
2017-10-30T12:11:33.158Z,1810
2017-10-30T12:12:43.712Z,1785
2017-10-30T12:13:54.180Z,1745
2017-10-30T12:15:04.849Z,1700
2017-10-30T12:16:15.006Z,1625
2017-10-30T12:17:25.568Z,1565
2017-10-30T12:18:36.269Z,1550
2017-10-30T12:19:46.778Z,1560
2017-10-30T12:20:57.292Z,1560
2017-10-30T12:22:07.395Z,1535
2017-10-30T12:23:17.457Z,1515
2017-10-30T12:24:27.974Z,1505
2017-10-30T12:25:38.146Z,1575
2017-10-30T12:26:48.697Z,1485
2017-10-30T12:27:59.205Z,1710
2017-10-30T12:29:09.829Z,1680
2017-10-30T12:30:20.336Z,1605
2017-10-30T12:31:30.858Z,1435
2017-10-30T12:32:41.478Z,1480
2017-10-30T12:33:51.788Z,1450
2017-10-30T12:35:02.344Z,1460
2017-10-30T12:36:12.840Z,1505
2017-10-30T12:37:23.329Z,1530
2017-10-30T12:38:33.933Z,1410
2017-10-30T12:39:44.446Z,1490
2017-10-30T12:40:54.979Z,1525
2017-10-30T12:42:05.524Z,1515
2017-10-30T12:43:15.991Z,1570
2017-10-30T12:44:26.278Z,1630
2017-10-30T12:45:36.792Z,1615
2017-10-30T12:46:47.406Z,1585
2017-10-30T12:47:57.945Z,1590
2017-10-30T12:49:08.474Z,1565
2017-10-30T12:50:18.634Z,1590
2017-10-30T12:51:29.152Z,1645
2017-10-30T12:52:39.749Z,905
2017-10-30T12:53:50.305Z,1560
2017-10-30T12:55:00.857Z,1500
2017-10-30T12:56:12.506Z,1425
2017-10-30T12:57:23.050Z,1345
2017-10-30T12:58:33.170Z,1310
2017-10-30T12:59:43.348Z,1340
2017-10-30T13:00:53.859Z,1355
2017-10-30T13:02:04.424Z,1325
2017-10-30T13:03:15.035Z,1295
2017-10-30T13:04:25.667Z,1300
2017-10-30T13:05:37.150Z,1335
2017-10-30T13:06:47.714Z,1355
2017-10-30T13:07:57.994Z,1340
2017-10-30T13:09:08.512Z,1315
2017-10-30T13:10:19.035Z,1320
2017-10-30T13:11:29.566Z,1350
2017-10-30T13:12:40.171Z,1320
2017-10-30T13:13:50.676Z,1295
2017-10-30T13:15:01.185Z,1245
2017-10-30T13:16:11.355Z,1180
2017-10-30T13:17:21.859Z,1145
2017-10-30T13:18:32.333Z,1180
2017-10-30T13:19:42.856Z,1055
2017-10-30T13:20:53.371Z,805
2017-10-30T13:22:03.900Z,530
2017-10-30T13:23:14.116Z,365
2017-10-30T13:24:24.617Z,280
2017-10-30T13:25:35.143Z,290
2017-10-30T13:26:45.744Z,270
2017-10-30T13:27:56.204Z,260
2017-10-30T13:29:06.730Z,250
2017-10-30T13:30:17.352Z,235
2017-10-30T13:31:27.535Z,230
2017-10-30T13:32:38.053Z,220
2017-10-30T13:33:48.578Z,220
2017-10-30T13:34:59.279Z,215
2017-10-30T13:36:09.416Z,210
2017-10-30T13:37:19.483Z,205
2017-10-30T13:38:30.194Z,205
2017-10-30T13:39:40.687Z,205
2017-10-30T13:40:51.286Z,200
2017-10-30T13:42:01.546Z,195
2017-10-30T13:43:12.076Z,195
2017-10-30T13:44:22.592Z,195
2017-10-30T13:45:33.220Z,195
2017-10-30T13:46:43.706Z,195
2017-10-30T13:47:54.190Z,195
2017-10-30T13:49:04.736Z,200
2017-10-30T13:50:15.543Z,200
2017-10-30T13:51:26.036Z,195
2017-10-30T13:52:36.511Z,185
2017-10-30T13:53:46.727Z,185
2017-10-30T13:54:57.184Z,180
2017-10-30T13:56:07.678Z,180
2017-10-30T13:57:18.147Z,175
2017-10-30T13:58:28.603Z,175
2017-10-30T13:59:39.067Z,170
2017-10-30T14:00:49.633Z,170
2017-10-30T14:01:59.714Z,170
2017-10-30T14:03:10.237Z,170
2017-10-30T14:04:20.729Z,170
2017-10-30T14:05:30.836Z,165
2017-10-30T14:06:41.341Z,165
2017-10-30T14:07:51.832Z,165
2017-10-30T14:09:02.306Z,160
2017-10-30T14:10:12.808Z,160
2017-10-30T14:11:23.320Z,155
2017-10-30T14:12:34.502Z,155
2017-10-30T14:13:44.993Z,165
2017-10-30T14:14:55.519Z,405
2017-10-30T14:16:06.061Z,680
2017-10-30T14:17:16.654Z,685
2017-10-30T14:18:26.821Z,685
2017-10-30T14:19:37.369Z,685
2017-10-30T14:20:47.901Z,665
2017-10-30T14:21:58.428Z,670
2017-10-30T14:23:08.899Z,685
2017-10-30T14:24:19.418Z,680
2017-10-30T14:25:30.003Z,670
2017-10-30T14:26:40.508Z,655
2017-10-30T14:27:51.135Z,645
2017-10-30T14:29:02.597Z,615
2017-10-30T14:30:13.123Z,610
2017-10-30T14:31:23.807Z,605
2017-10-30T14:32:34.281Z,580
2017-10-30T14:33:44.818Z,565
2017-10-30T14:34:55.349Z,480
2017-10-30T14:36:05.936Z,380
2017-10-30T14:37:16.435Z,270
2017-10-30T14:38:26.925Z,175
2017-10-30T14:39:37.439Z,160
2017-10-30T14:40:48.181Z,145
2017-10-30T14:41:58.877Z,135
2017-10-30T14:43:09.354Z,130
2017-10-30T14:44:19.597Z,125
2017-10-30T14:45:29.788Z,120
2017-10-30T14:46:40.040Z,115
2017-10-30T14:47:50.561Z,110
2017-10-30T14:49:01.049Z,105
2017-10-30T14:50:11.563Z,100
2017-10-30T14:51:22.176Z,100
2017-10-30T14:52:32.879Z,95
2017-10-30T14:53:43.375Z,90
2017-10-30T14:54:53.587Z,90
2017-10-30T14:56:04.066Z,85
2017-10-30T14:57:14.559Z,85
2017-10-30T14:58:25.046Z,80
2017-10-30T14:59:35.721Z,80
2017-10-30T15:00:46.208Z,80
2017-10-30T15:01:56.670Z,80
2017-10-30T15:03:07.395Z,80
2017-10-30T15:04:17.873Z,75
2017-10-30T15:05:28.389Z,75
2017-10-30T15:06:38.977Z,70
2017-10-30T15:07:49.459Z,70
2017-10-30T15:08:59.948Z,70
2017-10-30T15:10:09.966Z,65
2017-10-30T15:11:20.455Z,65
2017-10-30T15:12:30.578Z,60
2017-10-30T15:13:41.037Z,60
2017-10-30T15:14:51.571Z,60
2017-10-30T15:16:02.062Z,55
2017-10-30T15:17:12.583Z,55
2017-10-30T15:18:23.261Z,50
2017-10-30T15:19:33.809Z,50
2017-10-30T15:20:44.295Z,45
2017-10-30T15:21:54.825Z,45
2017-10-30T15:23:05.354Z,45
2017-10-30T15:24:15.840Z,40
2017-10-30T15:25:26.359Z,40
2017-10-30T15:26:37.125Z,35
2017-10-30T15:27:47.275Z,35
2017-10-30T15:28:57.765Z,35
2017-10-30T15:30:08.389Z,30
2017-10-30T15:31:18.884Z,30
2017-10-30T15:32:29.406Z,25
2017-10-30T15:33:39.875Z,25
2017-10-30T15:34:50.367Z,25
2017-10-30T15:36:00.907Z,25
2017-10-30T15:37:11.039Z,20
2017-10-30T15:38:21.514Z,20
2017-10-30T15:39:32.019Z,20
2017-10-30T15:40:42.526Z,15
2017-10-30T15:41:53.008Z,15
2017-10-30T15:43:03.668Z,15
2017-10-30T15:44:14.201Z,15
2017-10-30T15:45:24.729Z,10
2017-10-30T15:46:35.219Z,10
2017-10-30T15:47:45.717Z,10
2017-10-30T15:48:56.268Z,10
2017-10-30T15:50:07.040Z,10
2017-10-30T15:51:17.747Z,5
2017-10-30T15:52:28.237Z,5
2017-10-30T15:53:38.729Z,5
2017-10-30T15:54:49.328Z,5
2017-10-30T15:55:59.857Z,5
2017-10-30T15:57:10.331Z,5
2017-10-30T15:58:20.835Z,0
2017-10-30T15:59:31.299Z,0
2017-10-30T16:00:41.841Z,0
2017-10-30T16:01:52.341Z,0
2017-10-30T16:03:02.938Z,0
2017-10-30T16:04:13.679Z,0
2017-10-30T16:05:24.253Z,0
2017-10-30T16:06:34.736Z,0
2017-10-30T16:07:45.256Z,0
2017-10-30T16:08:55.743Z,0
2017-10-30T16:10:06.274Z,0
2017-10-30T16:11:17.767Z,0
2017-10-30T16:12:28.518Z,0
2017-10-30T16:13:39.030Z,0
2017-10-30T16:14:49.187Z,0
2017-10-30T16:15:59.821Z,0
2017-10-30T16:17:10.034Z,0
2017-10-30T16:18:20.586Z,0
2017-10-30T16:19:31.266Z,0
2017-10-30T16:20:41.954Z,0
2017-10-30T16:21:52.504Z,0
2017-10-30T16:23:03.051Z,0
2017-10-30T16:24:13.147Z,0
2017-10-30T16:25:23.641Z,0
2017-10-30T16:26:34.150Z,0
2017-10-30T16:27:44.769Z,0
2017-10-30T16:28:55.350Z,0
2017-10-30T16:30:05.863Z,0
2017-10-30T16:31:16.452Z,0